Time;durP1;ratioP1;P1;durP2;ratioP2;P2;SDS_P1;SDS_P2;PMS_P1;PMS_P2;Temp;Humidity;BMP_temperature;BMP_pressure;BME280_temperature;BME280_humidity;BME280_pressure;Samples;Min_cycle;Max_cycle;Signal;HPM_P1;HPM_P2
2022/10/27 00:02:05;;;;;;;6.30;5.05;;;13.80;99.90;;;;;;5040859;28;20185;-71
2022/10/27 00:04:31;;;;;;;8.73;5.63;;;13.80;99.90;;;;;;5024679;28;20216;-72
2022/10/27 00:06:56;;;;;;;7.65;5.35;;;13.80;99.90;;;;;;5034823;28;20219;-71
2022/10/27 00:09:22;;;;;;;8.13;5.00;;;13.80;99.90;;;;;;5039606;28;20224;-71
2022/10/27 00:11:47;;;;;;;9.13;5.63;;;13.70;99.90;;;;;;5043389;28;20234;-71
2022/10/27 00:14:13;;;;;;;6.85;5.07;;;13.80;99.90;;;;;;5027306;28;20168;-70
2022/10/27 00:16:39;;;;;;;12.57;5.80;;;13.80;99.90;;;;;;5019889;28;20238;-71
2022/10/27 00:19:05;;;;;;;7.38;5.15;;;13.80;99.90;;;;;;5039721;28;20346;-71
2022/10/27 00:21:30;;;;;;;7.75;5.50;;;13.80;99.90;;;;;;5041884;28;20214;-70
2022/10/27 00:23:56;;;;;;;9.68;4.85;;;13.70;99.90;;;;;;5017516;28;20205;-70
2022/10/27 00:26:21;;;;;;;8.85;5.70;;;13.70;99.90;;;;;;5038401;28;20176;-71
2022/10/27 00:28:47;;;;;;;7.50;5.82;;;13.70;99.90;;;;;;5025477;28;20535;-71
2022/10/27 00:31:19;;;;;;;11.77;5.40;;;13.60;99.90;;;;;;5039783;28;20208;-70
2022/10/27 00:33:47;;;;;;;8.30;6.15;;;13.70;99.90;;;;;;5041077;28;20205;-70
2022/10/27 00:36:16;;;;;;;9.32;5.57;;;13.70;99.90;;;;;;5022513;28;20217;-70
2022/10/27 00:38:42;;;;;;;8.45;5.97;;;13.60;99.90;;;;;;5037661;28;20211;-71
2022/10/27 00:41:35;;;;;;;14.05;6.03;;;13.70;99.90;;;;;;5036846;28;20185;-70
2022/10/27 00:44:21;;;;;;;10.18;5.65;;;13.70;99.90;;;;;;5037816;28;20208;-71
2022/10/27 00:46:48;;;;;;;8.50;5.50;;;13.70;99.90;;;;;;5038919;28;20214;-71
2022/10/27 00:49:21;;;;;;;11.77;5.60;;;13.70;99.90;;;;;;5019899;28;20217;-71
2022/10/27 00:51:52;;;;;;;12.13;6.63;;;13.60;99.90;;;;;;5017554;28;20278;-71
2022/10/27 00:54:20;;;;;;;8.43;4.88;;;13.60;99.90;;;;;;5040898;28;20296;-70
2022/10/27 00:56:48;;;;;;;7.40;5.43;;;13.60;99.90;;;;;;5022681;28;20233;-71
2022/10/27 00:59:14;;;;;;;11.57;6.25;;;13.60;99.90;;;;;;5040219;28;20230;-69
2022/10/27 01:01:40;;;;;;;7.15;4.88;;;13.50;99.90;;;;;;5038672;28;20183;-71
2022/10/27 01:04:07;;;;;;;9.43;5.07;;;13.50;99.90;;;;;;5038703;28;20255;-70
2022/10/27 01:06:34;;;;;;;12.10;5.30;;;13.50;99.90;;;;;;5020432;28;20583;-70
2022/10/27 01:09:00;;;;;;;9.90;5.65;;;13.50;99.90;;;;;;5039677;28;20216;-71
2022/10/27 01:11:26;;;;;;;12.52;5.68;;;13.50;99.90;;;;;;5039398;28;20685;-71
2022/10/27 01:13:51;;;;;;;9.38;5.57;;;13.50;99.90;;;;;;5040222;28;20215;-70
2022/10/27 01:16:23;;;;;;;9.80;5.40;;;13.50;99.90;;;;;;5042054;28;20234;-70
2022/10/27 01:19:26;;;;;;;9.98;5.47;;;13.50;99.90;;;;;;5042211;28;20234;-71
2022/10/27 01:22:18;;;;;;;10.52;5.63;;;13.50;99.90;;;;;;5042092;28;20214;-72
2022/10/27 01:25:00;;;;;;;8.52;5.63;;;13.50;99.90;;;;;;5044886;28;20207;-72
2022/10/27 01:27:56;;;;;;;10.53;5.80;;;13.50;99.90;;;;;;5042961;28;20216;-70
2022/10/27 01:30:22;;;;;;;10.88;5.40;;;13.40;99.90;;;;;;5027703;28;20215;-71
2022/10/27 01:33:11;;;;;;;9.30;6.00;;;13.50;99.90;;;;;;5031530;28;20212;-72
2022/10/27 01:35:58;;;;;;;10.07;6.00;;;13.50;99.90;;;;;;5048223;28;20207;-70
2022/10/27 01:38:30;;;;;;;8.55;5.70;;;13.50;99.90;;;;;;5048725;28;20234;-70
2022/10/27 01:41:01;;;;;;;7.10;5.10;;;13.40;99.90;;;;;;5046642;28;20221;-69
2022/10/27 01:43:29;;;;;;;10.88;5.55;;;13.40;99.90;;;;;;5041712;28;20638;-71
2022/10/27 01:45:55;;;;;;;7.95;4.97;;;13.40;99.90;;;;;;5018552;28;20228;-71
2022/10/27 01:48:22;;;;;;;8.32;5.43;;;13.40;99.90;;;;;;5043427;28;20220;-70
2022/10/27 01:50:47;;;;;;;8.77;5.57;;;13.50;99.90;;;;;;5022240;28;20572;-71
2022/10/27 01:53:13;;;;;;;10.40;5.70;;;13.50;99.90;;;;;;5049710;28;20203;-71
2022/10/27 01:55:51;;;;;;;8.02;5.07;;;13.40;99.90;;;;;;5043015;28;20211;-71
2022/10/27 01:58:44;;;;;;;7.57;6.00;;;13.40;99.90;;;;;;5043903;28;20204;-71
2022/10/27 02:01:20;;;;;;;14.00;7.20;;;13.50;99.90;;;;;;5041173;28;20570;-71
2022/10/27 02:03:54;;;;;;;11.05;5.60;;;13.40;99.90;;;;;;5047025;28;20264;-70
2022/10/27 02:06:41;;;;;;;9.25;6.20;;;13.40;99.90;;;;;;5045185;28;20208;-71
2022/10/27 02:09:20;;;;;;;7.60;5.28;;;13.40;99.90;;;;;;5041337;28;20216;-71
2022/10/27 02:11:51;;;;;;;7.68;5.32;;;13.40;99.90;;;;;;5041818;28;20319;-71
2022/10/27 02:14:18;;;;;;;11.00;6.13;;;13.30;99.90;;;;;;5023447;28;20663;-71
2022/10/27 02:16:47;;;;;;;14.90;6.10;;;13.30;99.90;;;;;;5021405;28;20205;-71
2022/10/27 02:19:20;;;;;;;9.80;5.38;;;13.30;99.90;;;;;;5038322;28;20216;-70
2022/10/27 02:21:50;;;;;;;9.75;6.15;;;13.40;99.90;;;;;;5041987;28;20207;-71
2022/10/27 02:24:16;;;;;;;10.05;5.63;;;13.30;99.90;;;;;;5043019;28;20222;-70
2022/10/27 02:26:47;;;;;;;11.67;6.07;;;13.30;99.90;;;;;;5041987;28;20235;-70
2022/10/27 02:29:17;;;;;;;8.82;5.90;;;13.30;99.90;;;;;;5040502;28;20746;-70
2022/10/27 02:31:47;;;;;;;9.40;6.28;;;13.30;99.90;;;;;;5060979;22;20170;-69
2022/10/27 02:34:14;;;;;;;9.60;6.22;;;13.30;99.90;;;;;;5078283;28;20207;-67
2022/10/27 02:36:40;;;;;;;11.30;6.57;;;13.30;99.90;;;;;;5084001;28;20202;-68
2022/10/27 02:39:05;;;;;;;13.07;6.78;;;13.30;99.90;;;;;;5063094;28;20215;-67
2022/10/27 02:41:31;;;;;;;8.07;6.13;;;13.30;99.90;;;;;;5084575;28;20652;-70
2022/10/27 02:43:56;;;;;;;12.85;6.68;;;13.30;99.90;;;;;;5078565;28;20174;-67
2022/10/27 02:46:22;;;;;;;9.60;6.10;;;13.30;99.90;;;;;;5076457;28;20207;-68
2022/10/27 02:48:47;;;;;;;10.68;5.70;;;13.30;99.90;;;;;;5099106;28;20308;-69
2022/10/27 02:51:13;;;;;;;11.80;5.97;;;13.30;99.90;;;;;;5085195;28;20561;-69
2022/10/27 02:53:38;;;;;;;8.40;5.63;;;13.20;99.90;;;;;;5097160;28;20210;-69
2022/10/27 02:56:04;;;;;;;11.60;6.15;;;13.20;99.90;;;;;;5094599;28;20170;-68
2022/10/27 02:58:30;;;;;;;10.15;6.05;;;13.20;99.90;;;;;;5097851;28;20217;-69
2022/10/27 03:00:56;;;;;;;11.48;6.93;;;13.30;99.90;;;;;;5095089;28;20202;-70
2022/10/27 03:03:22;;;;;;;13.02;7.40;;;13.20;99.90;;;;;;5093642;28;20211;-69
2022/10/27 03:05:48;;;;;;;14.13;5.50;;;13.20;99.90;;;;;;5083895;28;20206;-69
2022/10/27 03:08:14;;;;;;;9.27;6.57;;;13.20;99.90;;;;;;5083003;28;20269;-67
2022/10/27 03:10:39;;;;;;;14.57;6.35;;;13.10;99.90;;;;;;5079006;28;20173;-69
2022/10/27 03:13:05;;;;;;;9.18;5.68;;;13.10;99.90;;;;;;5093272;28;20260;-70
2022/10/27 03:15:30;;;;;;;11.27;6.80;;;13.10;99.90;;;;;;5101769;28;20205;-70
2022/10/27 03:17:56;;;;;;;10.32;5.88;;;13.10;99.90;;;;;;5077022;28;20201;-67
2022/10/27 03:20:21;;;;;;;9.60;6.72;;;13.10;99.90;;;;;;5088329;28;20257;-69
2022/10/27 03:22:47;;;;;;;10.37;6.70;;;13.10;99.90;;;;;;5099894;28;20284;-70
2022/10/27 03:25:14;;;;;;;8.65;5.93;;;13.00;99.90;;;;;;5083810;28;20226;-69
2022/10/27 03:27:42;;;;;;;9.90;6.40;;;13.10;99.90;;;;;;5098301;28;20213;-70
2022/10/27 03:30:12;;;;;;;10.87;6.87;;;13.00;99.90;;;;;;5096299;28;20214;-70
2022/10/27 03:32:38;;;;;;;9.80;5.90;;;13.00;99.90;;;;;;5102280;28;20840;-70
2022/10/27 03:35:04;;;;;;;12.30;7.10;;;13.00;99.90;;;;;;5097869;28;20181;-70
2022/10/27 03:37:29;;;;;;;9.52;6.47;;;13.00;99.90;;;;;;5082514;28;20210;-67
2022/10/27 03:39:55;;;;;;;10.33;6.87;;;13.00;99.90;;;;;;5096391;28;20747;-69
2022/10/27 03:42:20;;;;;;;11.60;6.93;;;13.00;99.90;;;;;;5102148;28;20718;-70
2022/10/27 03:44:46;;;;;;;9.37;6.77;;;13.00;99.90;;;;;;5092007;28;20699;-70
2022/10/27 03:47:12;;;;;;;15.23;7.17;;;13.00;99.90;;;;;;5092950;28;20178;-70
2022/10/27 03:49:37;;;;;;;10.38;6.53;;;13.00;99.90;;;;;;5099937;28;20206;-66
2022/10/27 03:52:03;;;;;;;10.65;6.80;;;12.90;99.90;;;;;;5096920;28;20317;-67
2022/10/27 03:54:30;;;;;;;10.55;6.15;;;12.90;99.90;;;;;;5093850;28;20647;-70
2022/10/27 03:56:55;;;;;;;10.03;6.73;;;13.00;99.90;;;;;;5090717;28;20213;-68
2022/10/27 03:59:21;;;;;;;12.43;7.20;;;13.00;99.90;;;;;;5083289;28;20173;-68
2022/10/27 04:01:47;;;;;;;12.87;6.63;;;13.00;99.90;;;;;;5092322;28;20197;-69
2022/10/27 04:04:12;;;;;;;13.43;6.70;;;12.90;99.90;;;;;;5092139;28;20229;-68
2022/10/27 04:06:38;;;;;;;9.48;6.57;;;12.90;99.90;;;;;;5081199;28;20734;-69
2022/10/27 04:09:03;;;;;;;10.83;6.20;;;12.80;99.90;;;;;;5096460;28;20214;-70
2022/10/27 04:11:29;;;;;;;11.03;7.40;;;12.80;99.90;;;;;;5093190;28;20175;-70
2022/10/27 04:13:54;;;;;;;11.60;7.07;;;12.80;99.90;;;;;;5096128;28;20189;-69
2022/10/27 04:16:20;;;;;;;10.63;7.43;;;12.80;99.90;;;;;;5100133;28;20224;-68
2022/10/27 04:18:46;;;;;;;8.90;6.20;;;12.80;99.90;;;;;;5091589;28;20834;-69
2022/10/27 04:21:11;;;;;;;12.40;6.93;;;12.80;99.90;;;;;;5096704;28;20324;-70
2022/10/27 04:23:37;;;;;;;12.30;7.33;;;12.80;99.90;;;;;;5098045;28;20391;-70
2022/10/27 04:26:03;;;;;;;16.80;7.40;;;12.80;99.90;;;;;;5092579;28;20178;-69
2022/10/27 04:28:28;;;;;;;17.40;7.60;;;12.70;99.90;;;;;;5095285;28;20226;-68
2022/10/27 04:30:54;;;;;;;10.63;6.23;;;12.80;99.90;;;;;;5095210;28;20352;-69
2022/10/27 04:33:19;;;;;;;9.40;7.10;;;12.80;99.90;;;;;;5098815;28;20221;-68
2022/10/27 04:35:45;;;;;;;9.23;7.13;;;12.80;99.90;;;;;;5095765;28;20688;-69
2022/10/27 04:38:10;;;;;;;8.33;6.53;;;12.70;99.90;;;;;;5078548;28;20548;-68
2022/10/27 04:40:36;;;;;;;13.87;6.97;;;12.70;99.90;;;;;;5099361;28;20252;-67
2022/10/27 04:43:01;;;;;;;9.63;6.57;;;12.70;99.90;;;;;;5095609;28;20277;-69
2022/10/27 04:45:27;;;;;;;10.47;7.20;;;12.70;99.90;;;;;;5079431;28;20202;-68
2022/10/27 04:47:52;;;;;;;8.87;6.57;;;12.60;99.90;;;;;;5095322;28;20208;-67
2022/10/27 04:50:18;;;;;;;10.57;6.67;;;12.60;99.90;;;;;;5091810;28;20281;-69
2022/10/27 04:52:58;;;;;;;12.07;6.57;;;12.60;99.90;;;;;;5098675;28;20204;-68
2022/10/27 04:55:25;;;;;;;10.37;7.03;;;12.60;99.90;;;;;;5091843;28;20589;-68
2022/10/27 04:57:51;;;;;;;10.07;6.87;;;12.60;99.90;;;;;;5096638;28;20213;-68
2022/10/27 05:00:17;;;;;;;9.10;6.43;;;12.70;99.90;;;;;;5092808;28;20257;-70
2022/10/27 05:02:42;;;;;;;11.03;6.27;;;12.60;99.90;;;;;;5095131;28;20711;-69
2022/10/27 05:05:08;;;;;;;13.57;6.90;;;12.60;99.90;;;;;;5093040;28;20185;-71
2022/10/27 05:07:33;;;;;;;11.77;7.00;;;12.60;99.90;;;;;;5099455;28;20229;-69
2022/10/27 05:09:59;;;;;;;11.17;6.70;;;12.60;99.90;;;;;;5093711;28;20209;-68
2022/10/27 05:12:24;;;;;;;8.57;6.33;;;12.60;99.90;;;;;;5074833;28;20227;-70
2022/10/27 05:14:50;;;;;;;11.17;7.20;;;12.60;99.90;;;;;;5096328;28;20214;-68
2022/10/27 05:17:15;;;;;;;10.10;6.23;;;12.60;99.90;;;;;;5093290;28;20229;-68
2022/10/27 05:19:41;;;;;;;11.57;6.87;;;12.60;99.90;;;;;;5094871;28;20196;-71
2022/10/27 05:22:06;;;;;;;10.93;7.53;;;12.60;99.90;;;;;;5091957;28;20710;-68
2022/10/27 05:24:32;;;;;;;12.17;6.90;;;12.60;99.90;;;;;;5102677;28;20198;-70
2022/10/27 05:26:57;;;;;;;10.63;7.53;;;12.60;99.90;;;;;;5093635;28;20207;-68
2022/10/27 05:29:24;;;;;;;11.80;6.70;;;12.60;99.90;;;;;;5091535;28;20564;-70
2022/10/27 05:31:50;;;;;;;10.70;6.60;;;12.60;99.90;;;;;;5096797;28;20592;-70
2022/10/27 05:34:16;;;;;;;12.47;7.30;;;12.60;99.90;;;;;;5099504;28;20212;-70
2022/10/27 05:36:41;;;;;;;10.33;7.53;;;12.60;99.90;;;;;;5091698;28;20297;-69
2022/10/27 05:39:07;;;;;;;10.07;6.47;;;12.60;99.90;;;;;;5077764;28;20285;-69
2022/10/27 05:41:32;;;;;;;11.20;7.00;;;12.60;99.90;;;;;;5096437;28;20205;-70
2022/10/27 05:43:58;;;;;;;12.77;7.70;;;12.50;99.90;;;;;;5092970;28;20177;-71
2022/10/27 05:46:23;;;;;;;9.60;6.47;;;12.60;99.90;;;;;;5073756;28;20207;-70
2022/10/27 05:48:49;;;;;;;12.57;6.97;;;12.60;99.90;;;;;;5096051;28;20237;-70
2022/10/27 05:51:14;;;;;;;12.93;6.67;;;12.50;99.90;;;;;;5080154;28;20594;-69
2022/10/27 05:53:40;;;;;;;10.73;7.07;;;12.50;99.90;;;;;;5091771;28;20214;-68
2022/10/27 05:56:05;;;;;;;10.13;6.20;;;12.50;99.90;;;;;;5091854;28;20645;-70
2022/10/27 05:58:31;;;;;;;17.87;7.87;;;12.50;99.90;;;;;;5099359;28;20217;-69
2022/10/27 06:01:00;;;;;;;10.53;6.80;;;12.50;99.90;;;;;;5092445;28;20214;-68
2022/10/27 06:03:26;;;;;;;13.10;6.83;;;12.60;99.90;;;;;;5074227;28;20696;-70
2022/10/27 06:05:52;;;;;;;14.10;7.43;;;12.60;99.90;;;;;;5095512;28;20300;-67
2022/10/27 06:08:19;;;;;;;12.43;6.93;;;12.60;99.90;;;;;;5102894;28;20270;-71
2022/10/27 06:10:45;;;;;;;9.07;6.27;;;12.70;99.90;;;;;;5082810;28;20182;-68
2022/10/27 06:13:17;;;;;;;12.83;7.40;;;12.80;99.90;;;;;;5094500;28;20233;-70
2022/10/27 06:15:43;;;;;;;9.47;6.63;;;12.90;99.90;;;;;;5100983;28;20229;-70
2022/10/27 06:18:08;;;;;;;11.43;6.67;;;13.00;99.90;;;;;;5097875;28;20725;-70
2022/10/27 06:20:34;;;;;;;11.17;6.67;;;13.00;99.90;;;;;;5097195;28;20213;-69
2022/10/27 06:23:00;;;;;;;14.27;6.40;;;13.30;99.90;;;;;;5096987;28;20239;-69
2022/10/27 06:25:25;;;;;;;10.73;5.67;;;13.80;99.90;;;;;;5107537;28;20224;-71
2022/10/27 06:27:51;;;;;;;13.80;6.13;;;14.00;99.90;;;;;;5075514;28;20233;-69
2022/10/27 06:30:16;;;;;;;7.30;5.47;;;13.90;99.90;;;;;;5096774;28;20218;-70
2022/10/27 06:32:42;;;;;;;8.18;5.95;;;14.00;99.90;;;;;;5100556;28;20224;-68
2022/10/27 06:35:09;;;;;;;7.90;5.78;;;14.40;99.90;;;;;;5080034;28;20213;-70
2022/10/27 06:37:39;;;;;;;9.90;5.97;;;15.00;99.90;;;;;;5097069;28;20218;-70
2022/10/27 06:40:07;;;;;;;7.53;5.40;;;15.40;99.90;;;;;;5090991;28;20206;-71
2022/10/27 06:42:36;;;;;;;10.88;6.53;;;15.70;99.90;;;;;;5102180;28;20210;-70
2022/10/27 06:45:02;;;;;;;10.30;5.28;;;16.30;99.90;;;;;;5077018;28;20209;-68
2022/10/27 06:47:28;;;;;;;9.45;4.78;;;16.70;99.90;;;;;;5097481;28;20466;-70
2022/10/27 06:49:54;;;;;;;10.23;4.85;;;17.10;99.90;;;;;;5098364;28;20577;-69
2022/10/27 06:52:19;;;;;;;6.55;4.53;;;17.20;99.90;;;;;;5096478;28;20198;-69
2022/10/27 06:54:44;;;;;;;8.15;5.35;;;17.00;99.90;;;;;;5098036;28;20205;-69
2022/10/27 06:57:10;;;;;;;8.10;5.15;;;16.80;99.90;;;;;;5084205;28;20209;-68
2022/10/27 06:59:36;;;;;;;8.55;4.72;;;16.60;99.90;;;;;;5101167;28;20205;-71
2022/10/27 07:02:03;;;;;;;10.55;4.97;;;17.10;99.90;;;;;;5091462;28;20194;-70
2022/10/27 07:04:28;;;;;;;11.55;4.70;;;17.90;99.90;;;;;;5079040;28;20236;-70
2022/10/27 07:06:54;;;;;;;10.48;5.60;;;18.50;99.90;;;;;;5082474;28;20229;-69
2022/10/27 07:09:19;;;;;;;8.88;4.43;;;18.90;99.90;;;;;;5097395;28;20282;-71
2022/10/27 07:11:45;;;;;;;8.45;4.78;;;19.40;99.90;;;;;;5094445;28;20303;-70
2022/10/27 07:14:10;;;;;;;8.18;4.78;;;19.50;99.90;;;;;;5080021;28;20224;-68
2022/10/27 07:16:36;;;;;;;11.45;5.25;;;19.60;99.90;;;;;;5104622;28;20216;-68
2022/10/27 07:19:02;;;;;;;7.25;4.40;;;19.70;99.90;;;;;;5099742;28;20210;-69
2022/10/27 07:21:28;;;;;;;11.73;5.25;;;19.60;99.90;;;;;;5096976;28;20202;-70
2022/10/27 07:23:53;;;;;;;9.63;5.30;;;19.50;99.90;;;;;;5097288;28;20740;-70
2022/10/27 07:26:19;;;;;;;9.32;5.03;;;19.20;99.90;;;;;;5095543;28;20179;-71
2022/10/27 07:28:45;;;;;;;13.77;5.57;;;19.80;99.90;;;;;;5078996;28;20197;-74
2022/10/27 07:31:10;;;;;;;7.95;4.72;;;20.60;99.90;;;;;;5094613;28;20608;-74
2022/10/27 07:33:36;;;;;;;14.10;5.78;;;21.20;99.90;;;;;;5100531;28;20220;-74
2022/10/27 07:36:02;;;;;;;7.50;4.57;;;21.50;99.90;;;;;;5094942;28;20209;-70
2022/10/27 07:38:27;;;;;;;8.75;4.45;;;21.50;99.90;;;;;;5095390;28;20262;-73
2022/10/27 07:40:55;;;;;;;10.77;4.93;;;21.20;99.90;;;;;;5095160;28;20715;-72
2022/10/27 07:43:21;;;;;;;9.25;5.25;;;21.50;99.90;;;;;;5077339;28;20207;-72
2022/10/27 07:45:46;;;;;;;9.48;4.70;;;22.00;99.90;;;;;;5100210;28;20324;-72
2022/10/27 07:48:14;;;;;;;11.13;4.68;;;22.30;99.90;;;;;;5081136;28;21025;-71
2022/10/27 07:50:41;;;;;;;6.20;4.15;;;22.90;99.90;;;;;;5083523;28;20213;-73
2022/10/27 07:53:07;;;;;;;7.90;4.25;;;22.70;99.90;;;;;;5094159;28;20202;-72
2022/10/27 07:55:35;;;;;;;7.03;5.20;;;22.60;99.90;;;;;;5078649;28;20223;-75
2022/10/27 07:58:06;;;;;;;11.48;4.70;;;22.60;99.90;;;;;;5078007;28;20221;-74
2022/10/27 08:00:34;;;;;;;13.98;5.38;;;22.10;99.90;;;;;;5078405;28;20260;-74
2022/10/27 08:03:04;;;;;;;15.60;5.85;;;22.00;99.90;;;;;;5082177;28;20206;-73
2022/10/27 08:05:32;;;;;;;8.30;4.60;;;22.10;99.90;;;;;;5079976;28;20185;-74
2022/10/27 08:08:02;;;;;;;8.38;4.43;;;22.00;99.90;;;;;;5081803;28;20192;-74
2022/10/27 08:10:30;;;;;;;10.07;5.05;;;21.90;99.90;;;;;;5091168;28;20633;-74
2022/10/27 08:12:56;;;;;;;9.68;5.18;;;21.60;99.90;;;;;;5097489;28;20256;-73
2022/10/27 08:15:21;;;;;;;8.18;4.82;;;21.40;99.90;;;;;;5082821;28;20205;-74
2022/10/27 08:17:56;;;;;;;6.95;4.68;;;21.40;99.90;;;;;;5082421;28;20210;-74
2022/10/27 08:20:23;;;;;;;10.50;5.25;;;21.10;99.90;;;;;;5079428;28;20644;-74
2022/10/27 08:22:56;;;;;;;7.65;5.53;;;21.10;99.90;;;;;;5099434;28;20209;-75
2022/10/27 08:25:22;;;;;;;11.35;6.28;;;20.70;99.90;;;;;;5097077;28;20223;-75
2022/10/27 08:27:47;;;;;;;7.38;4.30;;;20.60;99.90;;;;;;5073412;28;20617;-74
2022/10/27 08:30:13;;;;;;;8.77;5.18;;;20.30;99.90;;;;;;5096729;28;20233;-75
2022/10/27 08:35:11;;;;;;;11.25;5.10;;;20.00;99.90;;;;;;5069964;28;20283;-77
2022/10/27 08:37:37;;;;;;;7.68;5.40;;;20.00;99.90;;;;;;5076738;28;20174;-76
2022/10/27 08:40:03;;;;;;;9.63;5.38;;;20.10;99.90;;;;;;5064827;28;20207;-76
2022/10/27 08:42:37;;;;;;;8.63;6.05;;;20.00;99.90;;;;;;5065795;28;20233;-76
2022/10/27 08:45:22;;;;;;;11.75;5.15;;;20.20;99.90;;;;;;5048994;28;20199;-75
2022/10/27 08:47:48;;;;;;;13.77;7.68;;;20.30;99.90;;;;;;5041528;28;20593;-76
2022/10/27 08:50:19;;;;;;;13.52;5.93;;;20.40;99.90;;;;;;5044514;28;20195;-76
2022/10/27 08:52:52;;;;;;;14.00;6.88;;;20.60;99.90;;;;;;5055536;28;20180;-77
2022/10/27 08:55:34;;;;;;;11.07;6.10;;;20.50;99.90;;;;;;5048402;28;20203;-76
2022/10/27 08:58:08;;;;;;;11.32;6.28;;;20.60;99.90;;;;;;5041186;28;20208;-77
2022/10/27 09:00:50;;;;;;;9.43;5.47;;;20.80;99.90;;;;;;5056309;28;20212;-77
2022/10/27 09:03:35;;;;;;;11.05;6.00;;;20.90;99.90;;;;;;5047336;28;20258;-76
2022/10/27 09:06:15;;;;;;;7.72;5.18;;;20.90;99.90;;;;;;5048614;28;20686;-77
2022/10/27 09:09:15;;;;;;;6.78;4.60;;;20.70;99.90;;;;;;5053430;28;20238;-76
2022/10/27 09:11:47;;;;;;;9.13;4.93;;;20.60;99.90;;;;;;5052470;28;20629;-76
2022/10/27 09:14:26;;;;;;;8.00;5.05;;;20.60;99.90;;;;;;5044575;28;20709;-77
2022/10/27 09:17:09;;;;;;;9.07;5.20;;;20.30;99.90;;;;;;5055276;28;20182;-76
2022/10/27 09:19:45;;;;;;;7.40;5.63;;;20.50;99.90;;;;;;5059359;28;20198;-76
2022/10/27 09:22:19;;;;;;;7.78;5.18;;;20.30;99.90;;;;;;5038705;28;20400;-76
2022/10/27 09:25:01;;;;;;;7.28;4.80;;;20.60;99.90;;;;;;5054635;28;20284;-75
2022/10/27 09:27:27;;;;;;;8.45;4.80;;;20.80;99.90;;;;;;5053133;28;20211;-76
2022/10/27 09:29:57;;;;;;;11.48;4.90;;;21.00;99.90;;;;;;5045483;28;20216;-76
2022/10/27 09:32:25;;;;;;;7.63;4.50;;;21.20;99.90;;;;;;5047393;28;20228;-76
2022/10/27 09:35:12;;;;;;;8.35;4.43;;;21.20;99.90;;;;;;5058222;28;20650;-76
2022/10/27 09:37:40;;;;;;;7.47;4.90;;;21.20;99.90;;;;;;5042140;28;20227;-76
2022/10/27 09:40:15;;;;;;;7.32;4.00;;;21.20;99.90;;;;;;5042577;28;20238;-75
2022/10/27 09:42:41;;;;;;;9.75;4.35;;;21.30;99.90;;;;;;5057433;28;20198;-75
2022/10/27 09:45:18;;;;;;;5.40;3.85;;;21.20;99.90;;;;;;5052062;28;20222;-76
2022/10/27 09:47:48;;;;;;;6.15;4.10;;;21.30;99.90;;;;;;5043926;28;20231;-76
2022/10/27 09:50:24;;;;;;;6.68;3.90;;;21.30;99.90;;;;;;5047670;28;20290;-76
2022/10/27 09:52:50;;;;;;;5.40;3.92;;;21.10;99.90;;;;;;5057996;28;20179;-76
2022/10/27 09:55:17;;;;;;;7.45;3.55;;;21.10;99.90;;;;;;5048984;28;20216;-76
2022/10/27 09:57:45;;;;;;;6.55;3.85;;;21.10;99.90;;;;;;5047071;28;20285;-76
2022/10/27 10:00:20;;;;;;;7.90;3.75;;;21.10;99.90;;;;;;5046617;28;20226;-76
2022/10/27 10:03:05;;;;;;;6.70;4.20;;;21.00;99.90;;;;;;5043313;28;20244;-76
2022/10/27 10:05:35;;;;;;;8.57;3.60;;;21.30;99.90;;;;;;5060549;28;20257;-76
2022/10/27 10:08:22;;;;;;;7.25;3.78;;;21.30;99.90;;;;;;5052263;28;20269;-70
2022/10/27 10:11:00;;;;;;;8.70;4.22;;;21.50;99.90;;;;;;5052706;28;20210;-72
2022/10/27 10:13:31;;;;;;;5.15;3.58;;;21.70;99.90;;;;;;5044863;28;20298;-74
2022/10/27 10:16:15;;;;;;;5.50;3.20;;;21.30;99.90;;;;;;5053572;28;20252;-73
2022/10/27 10:19:00;;;;;;;7.90;4.05;;;21.00;99.90;;;;;;5057962;28;20725;-74
2022/10/27 10:21:25;;;;;;;5.72;3.53;;;20.90;99.90;;;;;;5046904;28;20266;-72
2022/10/27 10:23:54;;;;;;;7.57;3.78;;;21.20;99.90;;;;;;5045430;28;20686;-69
2022/10/27 10:26:28;;;;;;;7.63;3.55;;;21.00;99.90;;;;;;5060677;28;20517;-70
2022/10/27 10:29:03;;;;;;;6.22;3.78;;;20.90;99.90;;;;;;5042377;28;20215;-73
2022/10/27 10:31:29;;;;;;;10.35;3.55;;;20.70;99.90;;;;;;5044513;28;20678;-74
2022/10/27 10:34:03;;;;;;;6.10;3.45;;;20.50;99.90;;;;;;5038996;28;20224;-74
2022/10/27 10:36:29;;;;;;;6.32;3.33;;;20.70;99.90;;;;;;5054467;28;20269;-76
2022/10/27 10:38:58;;;;;;;5.72;3.60;;;21.10;99.90;;;;;;5047004;28;20290;-77
2022/10/27 10:41:26;;;;;;;5.68;2.80;;;21.20;99.90;;;;;;5057059;28;20176;-78
2022/10/27 10:44:14;;;;;;;5.40;3.08;;;21.00;99.90;;;;;;5055449;28;20207;-75
2022/10/27 10:46:52;;;;;;;5.72;2.92;;;21.00;99.90;;;;;;5037869;28;20219;-74
2022/10/27 10:49:41;;;;;;;6.88;3.20;;;20.70;99.90;;;;;;5055046;28;20744;-72
2022/10/27 10:52:18;;;;;;;4.45;2.83;;;20.80;99.90;;;;;;5064475;28;20211;-76
2022/10/27 10:54:45;;;;;;;6.13;3.17;;;20.90;99.90;;;;;;5047650;28;20643;-74
2022/10/27 10:57:38;;;;;;;6.53;2.95;;;21.00;99.90;;;;;;5045508;28;20231;-72
2022/10/27 11:00:05;;;;;;;7.60;3.65;;;21.30;99.90;;;;;;5056807;28;20531;-71
2022/10/27 11:02:33;;;;;;;9.13;3.03;;;21.10;99.90;;;;;;5052033;28;20214;-72
2022/10/27 11:05:17;;;;;;;7.15;3.47;;;21.10;99.90;;;;;;5045733;28;20192;-73
2022/10/27 11:07:46;;;;;;;7.82;3.20;;;21.20;99.90;;;;;;5043657;28;20202;-72
2022/10/27 11:10:29;;;;;;;7.55;3.70;;;20.90;99.90;;;;;;5052278;28;20212;-73
2022/10/27 11:13:10;;;;;;;6.90;3.10;;;21.20;99.90;;;;;;5043709;28;20261;-74
2022/10/27 11:15:46;;;;;;;8.23;3.38;;;21.40;99.90;;;;;;5045559;28;20207;-74
2022/10/27 11:18:28;;;;;;;5.65;3.08;;;21.20;99.90;;;;;;5059406;28;20693;-73
2022/10/27 11:21:14;;;;;;;8.95;3.17;;;21.00;99.90;;;;;;5058512;28;20585;-75
2022/10/27 11:23:57;;;;;;;6.30;2.75;;;21.10;99.90;;;;;;5046555;28;20291;-74
2022/10/27 11:26:54;;;;;;;9.35;3.03;;;21.10;99.90;;;;;;5041312;28;20274;-72
2022/10/27 11:29:30;;;;;;;5.07;2.65;;;21.20;99.90;;;;;;5047081;28;20289;-73
2022/10/27 11:32:08;;;;;;;3.25;2.08;;;21.30;99.90;;;;;;5042469;28;20682;-72
2022/10/27 11:34:59;;;;;;;6.93;2.67;;;21.40;99.90;;;;;;5051986;28;20226;-71
2022/10/27 11:37:54;;;;;;;7.90;2.75;;;21.20;99.90;;;;;;5051328;28;20215;-72
2022/10/27 11:40:43;;;;;;;4.60;2.45;;;21.10;99.90;;;;;;5048236;28;20215;-71
2022/10/27 11:43:20;;;;;;;6.72;2.55;;;20.90;99.90;;;;;;5046829;28;20228;-75
2022/10/27 11:45:52;;;;;;;6.85;2.88;;;20.80;99.90;;;;;;5041468;28;20207;-72
2022/10/27 11:48:36;;;;;;;3.90;2.45;;;20.90;99.90;;;;;;5048696;28;20211;-74
2022/10/27 11:51:04;;;;;;;5.95;2.25;;;21.00;99.90;;;;;;5056851;28;20211;-73
2022/10/27 11:53:30;;;;;;;4.63;2.45;;;21.10;99.90;;;;;;5052555;28;20657;-73
2022/10/27 11:55:58;;;;;;;7.25;3.08;;;20.90;99.90;;;;;;5046376;28;20263;-72
2022/10/27 11:58:51;;;;;;;4.30;2.45;;;20.90;99.90;;;;;;5048397;28;20314;-71
2022/10/27 12:01:39;;;;;;;5.57;2.78;;;21.00;99.90;;;;;;5040202;28;20235;-72
2022/10/27 12:04:26;;;;;;;4.50;2.15;;;21.00;99.90;;;;;;5046058;28;20219;-71
2022/10/27 12:07:18;;;;;;;6.13;3.50;;;21.00;99.90;;;;;;5048820;28;20591;-72
2022/10/27 12:09:54;;;;;;;7.22;2.75;;;21.20;99.90;;;;;;5063147;28;20234;-72
2022/10/27 12:12:34;;;;;;;6.07;2.55;;;21.30;99.90;;;;;;5036647;28;20233;-72
2022/10/27 12:15:09;;;;;;;8.10;2.90;;;21.40;99.90;;;;;;5039992;28;20207;-71
2022/10/27 12:17:48;;;;;;;6.75;2.67;;;21.40;99.90;;;;;;5063383;28;20590;-71
2022/10/27 12:20:25;;;;;;;6.70;2.83;;;21.50;99.90;;;;;;5044784;28;20259;-73
2022/10/27 12:22:59;;;;;;;6.82;2.55;;;21.60;99.90;;;;;;5041207;28;20199;-75
2022/10/27 12:25:30;;;;;;;5.65;2.78;;;21.40;99.90;;;;;;5062785;28;20729;-74
2022/10/27 12:27:59;;;;;;;6.18;2.58;;;21.20;99.90;;;;;;5047567;28;20219;-75
2022/10/27 12:30:25;;;;;;;9.90;4.32;;;21.00;99.90;;;;;;5045337;28;20215;-74
2022/10/27 12:33:08;;;;;;;7.75;2.92;;;21.00;99.90;;;;;;5047657;28;20218;-75
2022/10/27 12:35:36;;;;;;;5.13;3.53;;;21.10;99.90;;;;;;5042086;28;20211;-75
2022/10/27 12:38:29;;;;;;;5.03;2.60;;;21.10;99.90;;;;;;5046859;28;20171;-74
2022/10/27 12:41:02;;;;;;;3.97;2.40;;;20.90;99.90;;;;;;5041044;28;20216;-74
2022/10/27 12:43:56;;;;;;;4.47;2.30;;;20.80;99.90;;;;;;5046306;28;20276;-75
2022/10/27 12:47:02;;;;;;;4.55;2.85;;;20.80;99.90;;;;;;5049333;28;20290;-75
2022/10/27 12:49:44;;;;;;;4.53;2.88;;;20.80;99.90;;;;;;5045952;28;20231;-75
2022/10/27 12:52:17;;;;;;;4.65;2.47;;;20.80;99.90;;;;;;5058026;28;20203;-74
2022/10/27 12:55:01;;;;;;;4.70;2.40;;;20.90;99.90;;;;;;5048059;28;20215;-75
2022/10/27 12:58:06;;;;;;;3.50;2.47;;;20.80;99.90;;;;;;5052378;28;20225;-74
2022/10/27 13:00:49;;;;;;;6.50;2.28;;;20.60;99.90;;;;;;5045497;28;20614;-75
2022/10/27 13:03:36;;;;;;;4.07;2.50;;;20.60;99.90;;;;;;5047629;28;20222;-75
2022/10/27 13:06:37;;;;;;;7.07;2.63;;;20.70;99.90;;;;;;5040173;28;20219;-73